createdAt,value
2018-05-15T00:00:57.936Z,59.03
2018-05-15T00:02:51.217Z,58.64
2018-05-15T00:03:51.159Z,58.94
2018-05-15T00:05:44.561Z,58.94
2018-05-15T00:06:44.380Z,59.41
2018-05-15T00:08:37.682Z,59.51
2018-05-15T00:09:37.599Z,59.67
2018-05-15T00:11:30.881Z,60.35
2018-05-15T00:12:30.820Z,60.25
2018-05-15T00:14:24.130Z,60.08
2018-05-15T00:15:24.050Z,60.35
2018-05-15T00:17:17.350Z,61.11
2018-05-15T00:18:17.270Z,60.82
2018-05-15T00:20:10.552Z,61.59
2018-05-15T00:21:10.495Z,61.49
2018-05-15T00:23:03.799Z,60.92
2018-05-15T00:24:03.711Z,61.40
2018-05-15T00:25:57.093Z,60.82
2018-05-15T00:26:56.928Z,61.40
2018-05-15T00:28:50.231Z,61.21
2018-05-15T00:29:50.147Z,61.40
2018-05-15T00:31:43.427Z,61.30
2018-05-15T00:32:43.366Z,61.98
2018-05-15T00:34:36.668Z,61.98
2018-05-15T00:35:36.586Z,61.98
2018-05-15T00:37:29.877Z,60.79
2018-05-15T00:38:29.797Z,61.30
2018-05-15T00:40:23.075Z,61.85
2018-05-15T00:41:23.016Z,61.27
2018-05-15T00:43:16.345Z,61.46
2018-05-15T00:44:16.266Z,61.18
2018-05-15T00:46:09.543Z,62.04
2018-05-15T00:47:09.483Z,61.94
2018-05-15T00:49:02.784Z,61.37
2018-05-15T00:50:02.777Z,61.37
2018-05-15T00:51:55.979Z,60.99
2018-05-15T00:52:55.920Z,61.18
2018-05-15T00:54:49.324Z,60.99
2018-05-15T00:55:49.136Z,61.27
2018-05-15T00:57:42.427Z,61.37
2018-05-15T00:58:42.346Z,61.18
2018-05-15T01:00:35.626Z,60.99
2018-05-15T01:01:35.563Z,61.27
2018-05-15T01:03:28.863Z,61.37
2018-05-15T01:04:28.781Z,61.66
2018-05-15T01:06:22.061Z,61.91
2018-05-15T01:07:21.997Z,62.13
2018-05-15T01:09:15.298Z,61.63
2018-05-15T01:10:15.214Z,61.82
2018-05-15T01:12:08.495Z,61.72
2018-05-15T01:13:08.432Z,61.05
2018-05-15T01:15:01.732Z,62.10
2018-05-15T01:16:01.649Z,62.49
2018-05-15T01:17:54.940Z,62.59
2018-05-15T01:18:54.859Z,62.87
2018-05-15T01:20:48.135Z,62.39
2018-05-15T01:21:48.076Z,62.49
2018-05-15T01:23:41.373Z,62.39
2018-05-15T01:24:41.291Z,62.59
2018-05-15T01:26:34.570Z,62.96
2018-05-15T01:27:34.508Z,62.39
2018-05-15T01:29:27.807Z,62.65
2018-05-15T01:30:27.725Z,62.84
2018-05-15T01:32:21.002Z,62.20
2018-05-15T01:33:20.940Z,62.49
2018-05-15T01:35:14.239Z,63.06
2018-05-15T01:36:14.156Z,62.74
2018-05-15T01:38:07.450Z,63.13
2018-05-15T01:39:07.365Z,63.13
2018-05-15T01:41:00.642Z,62.84
2018-05-15T01:42:00.579Z,62.46
2018-05-15T01:43:53.879Z,62.74
2018-05-15T01:44:53.794Z,62.93
2018-05-15T01:46:47.073Z,62.65
2018-05-15T01:47:47.011Z,63.13
2018-05-15T01:49:40.345Z,63.70
2018-05-15T01:50:40.263Z,63.22
2018-05-15T01:52:33.644Z,62.55
2018-05-15T01:53:33.478Z,62.84
2018-05-15T01:55:26.776Z,63.60
2018-05-15T01:56:26.693Z,62.84
2018-05-15T01:58:19.991Z,62.93
2018-05-15T01:59:19.910Z,62.65
2018-05-15T02:01:13.187Z,63.13
2018-05-15T02:02:13.124Z,62.93
2018-05-15T02:04:06.436Z,63.60
2018-05-15T02:05:06.340Z,63.32
2018-05-15T02:06:59.729Z,63.42
2018-05-15T02:07:59.555Z,63.32
2018-05-15T02:09:52.855Z,63.32
2018-05-15T02:10:52.772Z,63.42
2018-05-15T02:12:46.055Z,62.84
2018-05-15T02:13:45.984Z,63.42
2018-05-15T02:15:39.388Z,63.99
2018-05-15T02:16:39.199Z,63.60
2018-05-15T02:18:32.498Z,63.57
2018-05-15T02:19:32.415Z,63.39
2018-05-15T02:21:25.691Z,63.29
2018-05-15T02:22:25.629Z,63.57
2018-05-15T02:24:18.927Z,63.76
2018-05-15T02:25:18.845Z,63.67
2018-05-15T02:27:12.112Z,63.67
2018-05-15T02:28:12.050Z,63.76
2018-05-15T02:30:05.348Z,63.76
2018-05-15T02:31:05.263Z,63.19
2018-05-15T02:32:58.540Z,63.76
2018-05-15T02:33:58.478Z,63.96
2018-05-15T02:35:51.775Z,63.57
2018-05-15T02:36:51.694Z,63.48
2018-05-15T02:38:45.599Z,63.57
2018-05-15T02:39:44.906Z,63.57
2018-05-15T02:41:38.184Z,63.96
2018-05-15T02:42:38.120Z,63.96
2018-05-15T02:44:31.415Z,64.05
2018-05-15T02:45:31.333Z,64.25
2018-05-15T02:47:24.603Z,64.92
2018-05-15T02:48:24.538Z,64.25
2018-05-15T02:50:17.835Z,64.53
2018-05-15T02:51:17.753Z,64.25
2018-05-15T02:53:11.029Z,64.50
2018-05-15T02:54:10.968Z,65.11
2018-05-15T02:56:04.343Z,65.20
2018-05-15T02:57:04.261Z,65.01
2018-05-15T02:58:57.556Z,64.98
2018-05-15T02:59:57.474Z,64.98
2018-05-15T03:01:50.748Z,64.59
2018-05-15T03:02:50.689Z,64.88
2018-05-15T03:04:43.982Z,65.26
2018-05-15T03:05:43.899Z,65.17
2018-05-15T03:07:37.167Z,65.45
2018-05-15T03:08:37.105Z,65.45
2018-05-15T03:10:30.401Z,65.94
2018-05-15T03:11:30.309Z,65.84
2018-05-15T03:13:23.593Z,66.03
2018-05-15T03:14:23.530Z,66.32
2018-05-15T03:16:16.827Z,66.41
2018-05-15T03:17:16.741Z,65.94
2018-05-15T03:19:10.042Z,66.80
2018-05-15T03:20:09.956Z,66.70
2018-05-15T03:22:03.235Z,66.32
2018-05-15T03:23:03.169Z,66.03
2018-05-15T03:24:56.469Z,66.70
2018-05-15T03:25:56.385Z,66.70
2018-05-15T03:27:49.654Z,66.80
2018-05-15T03:28:49.589Z,66.70
2018-05-15T03:30:42.992Z,66.89
2018-05-15T03:31:42.801Z,66.99
2018-05-15T03:33:36.076Z,67.18
2018-05-15T03:34:36.014Z,67.27
2018-05-15T03:36:29.309Z,67.27
2018-05-15T03:37:29.228Z,67.37
2018-05-15T03:39:22.505Z,67.76
2018-05-15T03:40:22.444Z,67.76
2018-05-15T03:42:15.737Z,68.13
2018-05-15T03:43:15.655Z,68.13
2018-05-15T03:45:08.929Z,68.04
2018-05-15T03:46:08.866Z,68.42
2018-05-15T03:48:02.264Z,68.20
2018-05-15T03:49:02.069Z,68.20
2018-05-15T03:50:55.364Z,68.23
2018-05-15T03:51:55.286Z,68.33
2018-05-15T03:53:48.558Z,68.23
2018-05-15T03:54:48.494Z,68.23
2018-05-15T03:56:41.789Z,68.77
2018-05-15T03:57:41.706Z,68.01
2018-05-15T03:59:34.983Z,68.39
2018-05-15T04:00:34.919Z,68.33
2018-05-15T04:02:28.319Z,68.96
2018-05-15T04:03:28.132Z,68.77
2018-05-15T04:05:21.517Z,69.35
2018-05-15T04:06:21.343Z,68.68
2018-05-15T04:08:14.639Z,68.87
2018-05-15T04:09:14.555Z,69.25
2018-05-15T04:11:07.881Z,69.06
2018-05-15T04:12:07.767Z,69.25
2018-05-15T04:14:01.044Z,69.64
2018-05-15T04:15:00.980Z,69.15
2018-05-15T04:16:54.341Z,68.96
2018-05-15T04:17:54.259Z,69.06
2018-05-15T04:19:47.638Z,69.82
2018-05-15T04:20:47.470Z,69.73
2018-05-15T04:22:40.766Z,69.92
2018-05-15T04:23:40.682Z,69.64
2018-05-15T04:25:33.961Z,70.30
2018-05-15T04:26:33.893Z,70.11
2018-05-15T04:28:27.229Z,69.64
2018-05-15T04:29:27.109Z,70.21
2018-05-15T04:31:20.398Z,69.92
2018-05-15T04:32:20.323Z,70.11
2018-05-15T04:34:13.592Z,69.73
2018-05-15T04:35:13.582Z,69.92
2018-05-15T04:37:06.817Z,70.01
2018-05-15T04:38:06.734Z,69.82
2018-05-15T04:40:00.122Z,69.82
2018-05-15T04:40:59.949Z,70.01
2018-05-15T04:42:53.849Z,69.09
2018-05-15T04:43:53.183Z,68.80
2018-05-15T04:45:46.540Z,68.52
2018-05-15T04:46:46.374Z,68.42
2018-05-15T04:48:39.670Z,67.27
2018-05-15T04:49:39.586Z,67.94
2018-05-15T04:51:32.879Z,67.37
2018-05-15T04:52:32.800Z,67.76
2018-05-15T04:54:26.075Z,67.37
2018-05-15T04:55:26.012Z,67.76
2018-05-15T04:57:19.297Z,67.76
2018-05-15T04:58:19.216Z,67.27
2018-05-15T05:00:12.492Z,67.76
2018-05-15T05:01:12.429Z,67.76
2018-05-15T05:03:05.731Z,67.66
2018-05-15T05:04:05.642Z,67.85
2018-05-15T05:05:59.022Z,67.18
2018-05-15T05:06:58.854Z,67.79
2018-05-15T05:08:52.149Z,67.31
2018-05-15T05:09:52.068Z,66.93
2018-05-15T05:11:45.533Z,66.16
2018-05-15T05:12:45.285Z,65.78
2018-05-15T05:14:38.601Z,65.97
2018-05-15T05:15:38.495Z,66.06
2018-05-15T05:17:31.782Z,66.16
2018-05-15T05:18:31.699Z,65.68
2018-05-15T05:20:24.976Z,66.35
2018-05-15T05:21:24.917Z,66.64
2018-05-15T05:23:18.230Z,65.68
2018-05-15T05:24:18.150Z,66.25
2018-05-15T05:26:11.428Z,66.06
2018-05-15T05:27:11.405Z,66.25
2018-05-15T05:29:04.655Z,65.52
2018-05-15T05:30:04.574Z,65.42
2018-05-15T05:31:57.873Z,65.23
2018-05-15T05:32:57.788Z,65.05
2018-05-15T05:34:51.170Z,63.80
2018-05-15T05:35:51.003Z,64.09
2018-05-15T05:37:44.344Z,64.47
2018-05-15T05:38:44.262Z,64.85
2018-05-15T05:40:37.539Z,64.85
2018-05-15T05:41:37.475Z,64.28
2018-05-15T05:43:30.772Z,63.73
2018-05-15T05:44:30.690Z,64.12
2018-05-15T05:46:24.030Z,63.92
2018-05-15T05:47:23.904Z,63.06
2018-05-15T05:49:17.305Z,63.26
2018-05-15T05:50:17.119Z,63.54
2018-05-15T05:52:10.414Z,63.64
2018-05-15T05:53:10.336Z,62.68
2018-05-15T05:55:03.614Z,62.68
2018-05-15T05:56:03.555Z,62.30
2018-05-15T05:57:56.951Z,62.77
2018-05-15T05:58:56.768Z,62.42
2018-05-15T06:00:50.153Z,62.90
2018-05-15T06:01:49.983Z,62.42
2018-05-15T06:03:43.286Z,62.04
2018-05-15T06:04:43.200Z,61.75
2018-05-15T06:06:36.497Z,61.56
2018-05-15T06:07:36.416Z,61.85
2018-05-15T06:09:29.818Z,61.08
2018-05-15T06:10:29.634Z,60.89
2018-05-15T06:12:22.930Z,61.08
2018-05-15T06:13:22.849Z,61.46
2018-05-15T06:15:16.146Z,60.63
2018-05-15T06:16:16.085Z,60.44
2018-05-15T06:18:09.485Z,61.02
2018-05-15T06:19:09.301Z,60.92
2018-05-15T06:21:02.639Z,59.86
2018-05-15T06:22:02.518Z,60.05
2018-05-15T06:23:55.827Z,60.82
2018-05-15T06:24:55.745Z,60.15
2018-05-15T06:26:49.042Z,60.92
2018-05-15T06:27:48.966Z,60.25
2018-05-15T06:29:42.344Z,59.51
2018-05-15T06:30:42.265Z,59.51
2018-05-15T06:32:35.563Z,57.36
2018-05-15T06:33:35.484Z,55.56
2018-05-15T06:35:28.764Z,52.92
2018-05-15T06:36:28.704Z,52.63
2018-05-15T06:38:22.007Z,54.60
2018-05-15T06:39:21.924Z,56.14
2018-05-15T06:41:15.206Z,56.91
2018-05-15T06:42:15.146Z,55.85
2018-05-15T06:44:08.451Z,53.11
2018-05-15T06:45:08.372Z,52.37
2018-05-15T06:47:01.759Z,50.30
2018-05-15T06:48:01.597Z,49.17
2018-05-15T06:49:54.881Z,46.97
2018-05-15T06:50:54.838Z,48.08
2018-05-15T06:52:48.129Z,49.34
2018-05-15T06:53:48.055Z,49.43
2018-05-15T06:55:41.347Z,49.05
2018-05-15T06:56:41.284Z,48.61
2018-05-15T06:58:34.590Z,48.30
2018-05-15T06:59:34.516Z,47.92
2018-05-15T07:01:27.904Z,49.15
2018-05-15T07:02:27.749Z,48.47
2018-05-15T07:04:21.158Z,48.76
2018-05-15T07:05:20.982Z,49.05
2018-05-15T07:07:14.389Z,48.95
2018-05-15T07:08:14.208Z,49.12
2018-05-15T07:10:07.499Z,48.86
2018-05-15T07:11:07.441Z,48.86
2018-05-15T07:13:00.750Z,49.05
2018-05-15T07:14:00.733Z,49.24
2018-05-15T07:15:53.969Z,50.11
2018-05-15T07:16:53.910Z,48.69
2018-05-15T07:18:47.823Z,49.10
2018-05-15T07:19:47.144Z,48.33
2018-05-15T07:21:40.433Z,47.09
2018-05-15T07:22:40.382Z,47.55
2018-05-15T07:24:33.691Z,49.07
2018-05-15T07:25:33.616Z,48.71
2018-05-15T07:27:27.095Z,48.57
2018-05-15T07:28:26.854Z,48.57
2018-05-15T07:30:20.147Z,48.95
2018-05-15T07:31:20.091Z,49.24
2018-05-15T07:33:13.473Z,49.82
2018-05-15T07:34:13.327Z,49.27
2018-05-15T07:36:06.617Z,48.23
2018-05-15T07:37:06.562Z,48.13
2018-05-15T07:38:59.874Z,46.71
2018-05-15T07:39:59.800Z,45.96
2018-05-15T07:41:53.190Z,45.86
2018-05-15T07:42:53.036Z,45.38
2018-05-15T07:44:46.347Z,46.23
2018-05-15T07:45:46.275Z,46.13
2018-05-15T07:47:39.585Z,45.48
2018-05-15T07:48:39.517Z,45.76
2018-05-15T07:50:33.404Z,46.59
2018-05-15T07:51:32.748Z,46.90
2018-05-15T07:53:26.050Z,45.26
2018-05-15T07:54:25.977Z,44.87
2018-05-15T07:56:19.267Z,46.11
2018-05-15T07:57:19.214Z,46.03
2018-05-15T07:59:12.515Z,46.25
2018-05-15T08:00:12.443Z,44.29
2018-05-15T08:02:05.762Z,46.88
2018-05-15T08:03:05.679Z,46.42
2018-05-15T08:04:58.990Z,45.89
2018-05-15T08:05:58.916Z,44.63
2018-05-15T08:07:52.221Z,46.51
2018-05-15T08:08:52.146Z,45.26
2018-05-15T08:10:45.439Z,44.49
2018-05-15T08:11:45.384Z,44.80
2018-05-15T08:13:39.299Z,44.78
2018-05-15T08:14:38.612Z,45.14
2018-05-15T08:16:31.904Z,46.03
2018-05-15T08:17:31.854Z,44.68
2018-05-15T08:19:25.282Z,44.22
2018-05-15T08:20:25.091Z,43.54
2018-05-15T08:22:18.400Z,43.26
2018-05-15T08:23:18.327Z,43.06
2018-05-15T08:25:11.641Z,42.97
2018-05-15T08:26:11.563Z,42.21
2018-05-15T08:28:04.865Z,40.57
2018-05-15T08:29:04.792Z,41.35
2018-05-15T08:30:58.262Z,42.41
2018-05-15T08:31:58.017Z,42.70
2018-05-15T08:33:51.336Z,44.51
2018-05-15T08:34:51.256Z,44.60
2018-05-15T08:36:44.547Z,41.85
2018-05-15T08:37:44.493Z,40.59
2018-05-15T08:39:37.804Z,40.32
2018-05-15T08:40:37.730Z,39.72
2018-05-15T08:42:31.022Z,37.63
2018-05-15T08:43:30.966Z,37.24
2018-05-15T08:45:24.386Z,37.17
2018-05-15T08:46:24.273Z,37.23
2018-05-15T08:48:17.683Z,39.04
2018-05-15T08:49:17.511Z,39.41
2018-05-15T08:51:10.804Z,40.17
2018-05-15T08:52:10.748Z,40.19
2018-05-15T08:54:04.658Z,40.96
2018-05-15T08:55:03.984Z,39.70
2018-05-15T08:56:57.317Z,38.93
2018-05-15T08:57:57.260Z,39.14
2018-05-15T08:59:50.672Z,37.90
2018-05-15T09:00:50.501Z,36.92
2018-05-15T09:02:43.791Z,36.80
2018-05-15T09:03:43.736Z,37.08
2018-05-15T09:05:37.054Z,37.88
2018-05-15T09:06:36.981Z,36.86
2018-05-15T09:08:30.391Z,35.68
2018-05-15T09:09:30.273Z,36.44
2018-05-15T09:11:23.564Z,36.82
2018-05-15T09:12:23.525Z,36.44
2018-05-15T09:14:16.923Z,36.44
2018-05-15T09:15:16.750Z,36.07
2018-05-15T09:17:10.033Z,35.13
2018-05-15T09:18:09.979Z,34.75
2018-05-15T09:20:03.293Z,34.75
2018-05-15T09:21:03.217Z,35.68
2018-05-15T09:22:56.509Z,35.91
2018-05-15T09:23:56.453Z,35.31
2018-05-15T09:25:50.364Z,35.66
2018-05-15T09:26:49.694Z,34.73
2018-05-15T09:28:43.008Z,33.59
2018-05-15T09:29:42.933Z,33.28
2018-05-15T09:31:36.227Z,33.41
2018-05-15T09:32:36.173Z,33.22
2018-05-15T09:34:29.476Z,32.46
2018-05-15T09:35:29.403Z,31.50
2018-05-15T09:37:22.797Z,32.37
2018-05-15T09:38:22.657Z,32.36
2018-05-15T09:40:16.068Z,32.75
2018-05-15T09:41:15.886Z,32.94
2018-05-15T09:43:09.180Z,33.12
2018-05-15T09:44:09.126Z,33.22
2018-05-15T09:46:02.443Z,33.41
2018-05-15T09:47:02.374Z,33.33
2018-05-15T09:48:55.683Z,31.62
2018-05-15T09:49:55.609Z,31.60
2018-05-15T09:51:48.904Z,33.23
2018-05-15T09:52:48.851Z,32.00
2018-05-15T09:54:42.166Z,31.79
2018-05-15T09:55:42.092Z,31.71
2018-05-15T09:57:35.485Z,30.45
2018-05-15T09:58:35.327Z,30.65
2018-05-15T10:00:28.637Z,31.20
2018-05-15T10:01:28.568Z,32.73
2018-05-15T10:03:21.868Z,33.51
2018-05-15T10:04:21.814Z,33.23
2018-05-15T10:06:15.131Z,31.78
2018-05-15T10:07:15.051Z,31.79
2018-05-15T10:09:08.368Z,32.36
2018-05-15T10:10:08.305Z,32.57
2018-05-15T10:12:01.592Z,33.23
2018-05-15T10:13:01.538Z,33.15
2018-05-15T10:14:54.851Z,31.92
2018-05-15T10:15:54.779Z,31.44
2018-05-15T10:17:48.079Z,30.19
2018-05-15T10:18:48.028Z,29.93
2018-05-15T10:20:41.442Z,29.33
2018-05-15T10:21:41.273Z,30.09
2018-05-15T10:23:34.571Z,29.71
2018-05-15T10:24:34.519Z,29.61
2018-05-15T10:26:27.869Z,30.95
2018-05-15T10:27:27.766Z,31.42
2018-05-15T10:29:21.085Z,32.24
2018-05-15T10:30:21.014Z,32.17
2018-05-15T10:32:14.349Z,31.50
2018-05-15T10:33:14.278Z,32.15
2018-05-15T10:35:07.598Z,33.09
2018-05-15T10:36:07.525Z,33.57
2018-05-15T10:38:00.846Z,33.83
2018-05-15T10:39:00.802Z,33.95
2018-05-15T10:40:54.110Z,33.10
2018-05-15T10:41:54.039Z,32.64
2018-05-15T10:43:47.354Z,31.78
2018-05-15T10:44:47.291Z,31.96
2018-05-15T10:46:40.700Z,32.06
2018-05-15T10:47:40.532Z,32.15
2018-05-15T10:49:33.850Z,31.68
2018-05-15T10:50:33.778Z,31.39
2018-05-15T10:52:27.173Z,31.99
2018-05-15T10:53:27.023Z,31.62
2018-05-15T10:55:20.350Z,30.55
2018-05-15T10:56:20.278Z,29.77
2018-05-15T10:58:13.576Z,30.54
2018-05-15T10:59:13.524Z,30.73
2018-05-15T11:01:06.841Z,32.04
2018-05-15T11:02:06.771Z,32.44
2018-05-15T11:04:00.164Z,31.76
2018-05-15T11:05:00.013Z,32.54
2018-05-15T11:06:53.334Z,30.54
2018-05-15T11:07:53.257Z,30.35
2018-05-15T11:09:46.670Z,28.87
2018-05-15T11:10:46.506Z,29.83
2018-05-15T11:12:39.817Z,31.18
2018-05-15T11:13:39.744Z,31.56
2018-05-15T11:15:33.060Z,32.73
2018-05-15T11:16:32.988Z,32.54
2018-05-15T11:18:26.332Z,33.20
2018-05-15T11:19:26.280Z,32.70
2018-05-15T11:21:19.597Z,34.62
2018-05-15T11:22:19.524Z,33.34
2018-05-15T11:24:12.919Z,32.18
2018-05-15T11:25:12.767Z,33.14
2018-05-15T11:27:06.073Z,34.20
2018-05-15T11:28:05.999Z,34.50
2018-05-15T11:29:59.311Z,35.39
2018-05-15T11:30:59.239Z,34.62
2018-05-15T11:32:52.631Z,35.55
2018-05-15T11:33:52.477Z,36.03
2018-05-15T11:35:45.848Z,35.95
2018-05-15T11:36:45.714Z,36.05
2018-05-15T11:38:39.014Z,35.76
2018-05-15T11:39:38.952Z,35.36
2018-05-15T11:41:32.359Z,36.71
2018-05-15T11:42:32.272Z,36.80
2018-05-15T11:44:25.562Z,36.92
2018-05-15T11:45:25.507Z,36.44
2018-05-15T11:47:18.954Z,35.08
2018-05-15T11:48:19.140Z,35.06
2018-05-15T11:50:12.801Z,35.45
2018-05-15T11:51:12.797Z,35.66
2018-05-15T11:53:05.954Z,34.12
2018-05-15T11:54:05.206Z,34.87
2018-05-15T11:55:58.512Z,35.08
2018-05-15T11:56:58.433Z,34.99
2018-05-15T11:58:51.724Z,34.68
2018-05-15T11:59:51.762Z,34.29
2018-05-15T12:01:44.981Z,33.63
2018-05-15T12:02:44.973Z,34.58
2018-05-15T12:04:38.193Z,34.41
2018-05-15T12:05:38.141Z,34.70
2018-05-15T12:07:31.439Z,33.55
2018-05-15T12:08:31.365Z,33.65
2018-05-15T12:10:24.775Z,34.13
2018-05-15T12:11:24.601Z,33.84
2018-05-15T12:13:17.992Z,34.60
2018-05-15T12:14:17.837Z,34.48
2018-05-15T12:16:11.204Z,35.06
2018-05-15T12:17:11.072Z,35.45
2018-05-15T12:19:04.364Z,35.28
2018-05-15T12:20:04.309Z,35.08
2018-05-15T12:21:57.618Z,35.58
2018-05-15T12:22:57.544Z,35.57
2018-05-15T12:24:50.934Z,35.00
2018-05-15T12:25:50.778Z,35.39
2018-05-15T12:27:44.082Z,33.67
2018-05-15T12:28:44.007Z,33.95
2018-05-15T12:30:37.315Z,33.47
2018-05-15T12:31:37.249Z,33.57
2018-05-15T12:33:30.533Z,32.38
2018-05-15T12:34:30.478Z,31.70
2018-05-15T12:36:24.393Z,33.05
2018-05-15T12:37:23.722Z,33.05
2018-05-15T12:39:17.014Z,33.05
2018-05-15T12:40:16.958Z,32.57
2018-05-15T12:42:10.590Z,31.80
2018-05-15T12:43:10.274Z,32.09
2018-05-15T12:45:03.570Z,32.46
2018-05-15T12:46:03.509Z,32.84
2018-05-15T12:47:56.823Z,33.55
2018-05-15T12:48:56.737Z,32.68
2018-05-15T12:50:50.143Z,33.07
2018-05-15T12:51:49.972Z,32.99
2018-05-15T12:53:43.263Z,32.10
2018-05-15T12:54:43.207Z,32.39
2018-05-15T12:56:36.516Z,32.49
2018-05-15T12:57:36.448Z,32.97
2018-05-15T12:59:29.733Z,32.47
2018-05-15T13:00:29.680Z,32.76
2018-05-15T13:02:23.003Z,32.57
2018-05-15T13:03:22.915Z,33.25
2018-05-15T13:05:16.205Z,33.34
2018-05-15T13:06:16.151Z,34.70
2018-05-15T13:08:09.458Z,33.73
2018-05-15T13:09:09.388Z,33.54
2018-05-15T13:11:02.692Z,33.62
2018-05-15T13:12:02.618Z,33.72
2018-05-15T13:13:56.014Z,33.42
2018-05-15T13:14:55.864Z,33.54
2018-05-15T13:16:49.164Z,32.67
2018-05-15T13:17:49.094Z,33.07
2018-05-15T13:19:42.382Z,32.39
2018-05-15T13:20:42.325Z,32.29
2018-05-15T13:22:35.635Z,32.39
2018-05-15T13:23:35.561Z,32.29
2018-05-15T13:25:28.852Z,32.39
2018-05-15T13:26:28.796Z,33.17
2018-05-15T13:28:22.107Z,33.44
2018-05-15T13:29:22.034Z,33.65
2018-05-15T13:31:15.451Z,34.13
2018-05-15T13:32:15.269Z,33.73
2018-05-15T13:34:08.658Z,34.52
2018-05-15T13:35:08.506Z,34.02
2018-05-15T13:37:01.814Z,34.31
2018-05-15T13:38:01.741Z,34.50
2018-05-15T13:39:55.029Z,34.02
2018-05-15T13:40:54.972Z,34.31
2018-05-15T13:42:48.384Z,33.36
2018-05-15T13:43:48.269Z,33.36
2018-05-15T13:45:41.581Z,33.75
2018-05-15T13:46:41.506Z,33.37
2018-05-15T13:48:34.818Z,33.37
2018-05-15T13:49:34.742Z,32.21
2018-05-15T13:51:28.053Z,32.68
2018-05-15T13:52:27.978Z,33.17
2018-05-15T13:54:21.270Z,33.09
2018-05-15T13:55:21.214Z,32.97
2018-05-15T13:57:14.627Z,33.55
2018-05-15T13:58:14.444Z,33.57
2018-05-15T14:00:07.734Z,33.28
2018-05-15T14:01:07.679Z,33.09
2018-05-15T14:03:00.991Z,32.31
2018-05-15T14:04:00.915Z,31.91
2018-05-15T14:05:54.307Z,32.51
2018-05-15T14:06:54.154Z,32.31
2018-05-15T14:08:47.468Z,32.20
2018-05-15T14:09:47.394Z,32.68
2018-05-15T14:11:40.800Z,32.59
2018-05-15T14:12:40.629Z,32.49
2018-05-15T14:14:33.920Z,32.39
2018-05-15T14:15:33.866Z,32.10
2018-05-15T14:17:27.169Z,32.59
2018-05-15T14:18:27.094Z,33.26
2018-05-15T14:20:21.234Z,32.31
2018-05-15T14:21:21.179Z,32.60
2018-05-15T14:23:14.493Z,32.41
2018-05-15T14:24:14.415Z,32.02
2018-05-15T14:26:07.707Z,32.62
2018-05-15T14:27:07.651Z,32.42
2018-05-15T14:29:00.962Z,32.52
2018-05-15T14:30:00.890Z,32.23
2018-05-15T14:31:54.311Z,32.62
2018-05-15T14:32:54.127Z,32.52
2018-05-15T14:34:47.418Z,32.14
2018-05-15T14:35:47.364Z,32.04
2018-05-15T14:37:40.676Z,32.21
2018-05-15T14:38:40.605Z,32.21
2018-05-15T14:40:33.899Z,32.02
2018-05-15T14:41:33.843Z,32.21
2018-05-15T14:43:27.153Z,32.51
2018-05-15T14:44:27.080Z,32.70
2018-05-15T14:46:20.379Z,32.12
2018-05-15T14:47:20.318Z,31.34
2018-05-15T14:49:13.728Z,30.78
2018-05-15T14:50:13.563Z,30.58
2018-05-15T14:52:06.875Z,30.78
2018-05-15T14:53:06.793Z,30.49
2018-05-15T14:55:00.185Z,30.49
2018-05-15T14:56:00.032Z,30.98
2018-05-15T14:57:53.335Z,30.78
2018-05-15T14:58:53.262Z,30.10
2018-05-15T15:00:46.654Z,31.15
2018-05-15T15:01:46.499Z,31.26
2018-05-15T15:03:39.809Z,30.96
2018-05-15T15:04:39.737Z,31.05
2018-05-15T15:06:33.034Z,31.46
2018-05-15T15:07:32.977Z,30.86
2018-05-15T15:09:26.342Z,31.44
2018-05-15T15:10:26.269Z,31.63
2018-05-15T15:12:19.583Z,32.02
2018-05-15T15:13:19.505Z,32.02
2018-05-15T15:15:12.798Z,32.10
2018-05-15T15:16:12.742Z,32.68
2018-05-15T15:18:06.047Z,32.78
2018-05-15T15:19:05.972Z,32.49
2018-05-15T15:20:59.264Z,33.07
2018-05-15T15:21:59.214Z,33.45
2018-05-15T15:23:52.620Z,33.65
2018-05-15T15:24:52.445Z,33.36
2018-05-15T15:26:45.737Z,33.37
2018-05-15T15:27:45.681Z,33.09
2018-05-15T15:29:38.992Z,32.78
2018-05-15T15:30:38.920Z,33.26
2018-05-15T15:32:32.226Z,32.51
2018-05-15T15:33:32.153Z,32.60
2018-05-15T15:35:25.451Z,33.18
2018-05-15T15:36:25.398Z,33.57
2018-05-15T15:38:18.709Z,33.37
2018-05-15T15:39:18.635Z,33.36
2018-05-15T15:41:11.928Z,33.57
2018-05-15T15:42:11.873Z,33.57
2018-05-15T15:44:05.188Z,34.94
2018-05-15T15:45:05.110Z,33.49
2018-05-15T15:46:58.401Z,33.39
2018-05-15T15:47:58.346Z,34.17
2018-05-15T15:49:51.664Z,33.97
2018-05-15T15:50:51.591Z,33.67
2018-05-15T15:52:44.902Z,33.28
2018-05-15T15:53:44.831Z,33.49
2018-05-15T15:55:38.124Z,33.59
2018-05-15T15:56:38.068Z,33.01
2018-05-15T15:58:31.379Z,33.28
2018-05-15T15:59:31.306Z,32.99
2018-05-15T16:01:24.598Z,33.37
2018-05-15T16:02:24.544Z,34.05
2018-05-15T16:04:17.855Z,34.65
2018-05-15T16:05:17.781Z,34.75
2018-05-15T16:07:11.085Z,34.15
2018-05-15T16:08:11.030Z,34.63
2018-05-15T16:10:04.454Z,33.87
2018-05-15T16:11:04.273Z,33.10
2018-05-15T16:12:57.680Z,31.56
2018-05-15T16:13:57.508Z,31.63
2018-05-15T16:15:50.799Z,31.73
2018-05-15T16:16:50.746Z,31.93
2018-05-15T16:18:44.059Z,32.33
2018-05-15T16:19:43.980Z,32.33
2018-05-15T16:21:37.275Z,33.57
2018-05-15T16:22:37.221Z,32.79
2018-05-15T16:24:30.534Z,33.59
2018-05-15T16:25:30.458Z,32.31
2018-05-15T16:27:23.744Z,32.41
2018-05-15T16:28:23.688Z,32.21
2018-05-15T16:30:17.001Z,32.33
2018-05-15T16:31:16.927Z,32.51
2018-05-15T16:33:10.238Z,32.52
2018-05-15T16:34:10.165Z,32.99
2018-05-15T16:36:03.459Z,34.15
2018-05-15T16:37:03.405Z,34.63
2018-05-15T16:38:56.719Z,35.00
2018-05-15T16:39:56.643Z,35.39
2018-05-15T16:41:49.935Z,35.88
2018-05-15T16:42:49.878Z,36.36
2018-05-15T16:44:43.192Z,35.99
2018-05-15T16:45:43.118Z,35.20
2018-05-15T16:47:36.402Z,35.49
2018-05-15T16:48:36.347Z,35.68
2018-05-15T16:50:29.659Z,35.68
2018-05-15T16:51:29.583Z,35.49
2018-05-15T16:53:22.959Z,34.70
2018-05-15T16:54:22.822Z,35.47
2018-05-15T16:56:16.108Z,36.07
2018-05-15T16:57:16.058Z,36.74
2018-05-15T16:59:09.367Z,35.10
2018-05-15T17:00:09.294Z,35.37
2018-05-15T17:02:02.588Z,36.55
2018-05-15T17:03:02.538Z,36.16
2018-05-15T17:04:55.842Z,34.71
2018-05-15T17:05:55.768Z,34.89
2018-05-15T17:07:49.115Z,35.18
2018-05-15T17:08:49.031Z,35.39
2018-05-15T17:10:42.345Z,35.88
2018-05-15T17:11:42.267Z,35.68
2018-05-15T17:13:35.652Z,35.68
2018-05-15T17:14:35.506Z,36.26
2018-05-15T17:16:28.795Z,37.32
2018-05-15T17:17:28.740Z,36.74
2018-05-15T17:19:22.051Z,36.65
2018-05-15T17:20:21.977Z,35.58
2018-05-15T17:22:15.267Z,35.95
2018-05-15T17:23:15.226Z,36.74
2018-05-15T17:25:08.517Z,36.53
2018-05-15T17:26:08.449Z,36.72
2018-05-15T17:28:01.731Z,36.74
2018-05-15T17:29:01.678Z,36.94
2018-05-15T17:30:54.988Z,36.55
2018-05-15T17:31:54.912Z,37.04
2018-05-15T17:33:48.205Z,36.74
2018-05-15T17:34:48.146Z,37.32
2018-05-15T17:36:41.461Z,36.65
2018-05-15T17:37:41.388Z,35.97
2018-05-15T17:39:34.698Z,36.74
2018-05-15T17:40:34.626Z,37.42
2018-05-15T17:42:27.918Z,36.74
2018-05-15T17:43:27.860Z,36.18
2018-05-15T17:45:21.171Z,36.86
2018-05-15T17:46:21.095Z,36.76
2018-05-15T17:48:14.390Z,36.65
2018-05-15T17:49:14.333Z,36.82
2018-05-15T17:51:07.645Z,36.92
2018-05-15T17:52:07.571Z,37.50
2018-05-15T17:54:00.862Z,37.12
2018-05-15T17:55:00.808Z,37.21
2018-05-15T17:56:54.121Z,37.30
2018-05-15T17:57:54.044Z,37.21
2018-05-15T17:59:47.432Z,37.21
2018-05-15T18:00:47.280Z,37.79
2018-05-15T18:02:40.589Z,38.56
2018-05-15T18:03:40.516Z,37.40
2018-05-15T18:05:33.825Z,37.98
2018-05-15T18:06:33.752Z,38.46
2018-05-15T18:08:27.139Z,36.82
2018-05-15T18:09:26.990Z,36.82
2018-05-15T18:11:20.361Z,38.18
2018-05-15T18:12:20.268Z,38.08
2018-05-15T18:14:13.560Z,38.37
2018-05-15T18:15:13.566Z,38.28
2018-05-15T18:17:06.806Z,37.70
2018-05-15T18:18:06.732Z,37.58
2018-05-15T18:20:00.027Z,37.88
2018-05-15T18:20:59.984Z,38.18
2018-05-15T18:22:53.298Z,39.14
2018-05-15T18:23:53.228Z,39.24
2018-05-15T18:25:46.530Z,38.25
2018-05-15T18:26:46.458Z,38.54
2018-05-15T18:28:39.808Z,39.12
2018-05-15T18:29:39.697Z,38.93
2018-05-15T18:31:33.014Z,39.22
2018-05-15T18:32:32.938Z,39.70
2018-05-15T18:34:26.229Z,39.99
2018-05-15T18:35:26.173Z,39.90